Time;durP1;ratioP1;P1;durP2;ratioP2;P2;SDS_P1;SDS_P2;PMS_P1;PMS_P2;Temp;Humidity;BMP_temperature;BMP_pressure;BME280_temperature;BME280_humidity;BME280_pressure;Samples;Min_cycle;Max_cycle;Signal;HPM_P1;HPM_P2
2021/10/05 00:01:49;;;;;;;1.42;0.30;;;;;;;;;;5060078;28;20060;-71
2021/10/05 00:04:16;;;;;;;1.25;0.32;;;;;;;;;;5041206;28;20474;-73
2021/10/05 00:06:43;;;;;;;2.42;0.30;;;;;;;;;;5046791;28;20033;-71
2021/10/05 00:09:10;;;;;;;7.50;0.40;;;;;;;;;;5042236;28;20037;-72
2021/10/05 00:11:37;;;;;;;6.13;0.30;;;;;;;;;;5045636;28;20029;-74
2021/10/05 00:14:05;;;;;;;4.63;0.63;;;;;;;;;;5047357;28;20093;-72
2021/10/05 00:16:32;;;;;;;4.15;0.30;;;;;;;;;;5043049;28;20100;-75
2021/10/05 00:18:59;;;;;;;4.32;0.40;;;;;;;;;;5040663;28;20163;-74
2021/10/05 00:21:26;;;;;;;3.47;0.35;;;;;;;;;;5039694;28;20026;-77
2021/10/05 00:23:54;;;;;;;4.70;0.40;;;;;;;;;;5050914;28;20041;-73
2021/10/05 00:26:21;;;;;;;3.70;0.80;;;;;;;;;;5049377;28;20067;-72
2021/10/05 00:28:48;;;;;;;2.00;0.30;;;;;;;;;;5050493;28;20102;-71
2021/10/05 00:31:15;;;;;;;3.03;0.30;;;;;;;;;;5044011;28;20034;-72
2021/10/05 00:33:42;;;;;;;2.35;0.30;;;;;;;;;;5048456;28;20013;-71
2021/10/05 00:36:09;;;;;;;2.17;0.20;;;;;;;;;;5046641;28;20029;-70
2021/10/05 00:38:37;;;;;;;5.07;0.40;;;;;;;;;;5057069;28;20114;-71
2021/10/05 00:41:04;;;;;;;2.45;0.35;;;;;;;;;;5042392;28;20109;-72
2021/10/05 00:43:31;;;;;;;1.92;0.20;;;;;;;;;;5050337;28;20098;-73
2021/10/05 00:45:58;;;;;;;1.55;0.30;;;;;;;;;;5050512;28;20029;-73
2021/10/05 00:48:26;;;;;;;3.40;0.40;;;;;;;;;;5037321;28;20110;-75
2021/10/05 00:50:53;;;;;;;8.77;0.50;;;;;;;;;;5040596;28;20052;-74
2021/10/05 00:53:20;;;;;;;0.95;0.30;;;;;;;;;;5043022;28;20475;-75
2021/10/05 00:55:47;;;;;;;3.45;0.30;;;;;;;;;;5046990;28;20025;-71
2021/10/05 00:58:14;;;;;;;2.88;0.28;;;;;;;;;;5041092;28;20540;-72
2021/10/05 01:00:41;;;;;;;2.53;0.30;;;;;;;;;;5035379;28;20040;-72
2021/10/05 01:03:09;;;;;;;2.95;0.65;;;;;;;;;;5039996;28;20017;-71
2021/10/05 01:05:36;;;;;;;2.22;0.40;;;;;;;;;;5046577;28;20029;-72
2021/10/05 01:08:03;;;;;;;7.03;1.20;;;;;;;;;;5047992;28;20021;-71
2021/10/05 01:10:31;;;;;;;1.88;0.47;;;;;;;;;;5046016;28;20119;-72
2021/10/05 01:12:58;;;;;;;1.80;0.30;;;;;;;;;;5052997;28;20018;-71
2021/10/05 01:15:26;;;;;;;1.58;0.22;;;;;;;;;;5050273;28;20470;-71
2021/10/05 01:17:54;;;;;;;2.20;0.40;;;;;;;;;;5050115;28;20474;-70
2021/10/05 01:20:21;;;;;;;6.35;0.40;;;;;;;;;;5039753;28;20026;-72
2021/10/05 01:22:49;;;;;;;3.20;0.30;;;;;;;;;;5035731;28;20075;-73
2021/10/05 01:25:17;;;;;;;7.72;0.30;;;;;;;;;;5052253;28;20106;-72
2021/10/05 01:27:52;;;;;;;1.95;0.22;;;;;;;;;;5043209;28;20017;-75
2021/10/05 01:30:20;;;;;;;2.00;0.50;;;;;;;;;;5046392;28;20086;-74
2021/10/05 01:32:48;;;;;;;1.58;0.20;;;;;;;;;;5038049;28;20513;-74
2021/10/05 01:35:18;;;;;;;1.42;0.22;;;;;;;;;;5037080;28;20033;-74
2021/10/05 01:37:45;;;;;;;1.73;0.20;;;;;;;;;;5042125;28;20546;-73
2021/10/05 01:40:12;;;;;;;1.88;0.30;;;;;;;;;;5038126;28;20049;-74
2021/10/05 01:42:40;;;;;;;1.45;0.30;;;;;;;;;;5044487;28;20032;-73
2021/10/05 01:45:08;;;;;;;1.48;0.25;;;;;;;;;;5042043;28;20378;-74
2021/10/05 01:47:35;;;;;;;2.20;0.40;;;;;;;;;;5034503;28;20032;-73
2021/10/05 01:50:02;;;;;;;0.93;0.13;;;;;;;;;;5050562;28;20033;-74
2021/10/05 01:52:29;;;;;;;0.20;0.00;;;;;;;;;;5041801;28;20025;-73
2021/10/05 01:54:56;;;;;;;1.63;0.63;;;;;;;;;;5038725;28;20079;-74
2021/10/05 01:57:24;;;;;;;2.50;0.10;;;;;;;;;;5048323;28;20017;-74
2021/10/05 01:59:51;;;;;;;2.35;0.20;;;;;;;;;;5051187;28;20033;-73
2021/10/05 02:02:18;;;;;;;0.68;0.10;;;;;;;;;;5044953;28;20018;-74
2021/10/05 02:04:46;;;;;;;1.13;0.03;;;;;;;;;;5045699;28;20036;-71
2021/10/05 02:07:14;;;;;;;3.83;0.20;;;;;;;;;;5036745;28;20525;-73
2021/10/05 02:09:47;;;;;;;2.20;0.17;;;;;;;;;;5039983;28;20049;-72
2021/10/05 02:12:15;;;;;;;1.45;0.20;;;;;;;;;;5043024;28;20127;-72
2021/10/05 02:14:46;;;;;;;0.80;0.10;;;;;;;;;;5048956;28;20052;-73
2021/10/05 02:17:13;;;;;;;2.47;0.10;;;;;;;;;;5034220;28;20053;-73
2021/10/05 02:19:40;;;;;;;1.65;0.20;;;;;;;;;;5035585;28;20039;-72
2021/10/05 02:22:08;;;;;;;3.58;0.20;;;;;;;;;;5064033;28;20047;-73
2021/10/05 02:24:42;;;;;;;1.77;0.10;;;;;;;;;;5041790;28;20040;-73
2021/10/05 02:27:10;;;;;;;4.68;0.13;;;;;;;;;;5035371;28;20025;-73
2021/10/05 02:29:38;;;;;;;1.35;0.15;;;;;;;;;;5038235;28;20118;-72
2021/10/05 02:32:09;;;;;;;0.90;0.20;;;;;;;;;;5033412;28;20018;-73
2021/10/05 02:34:40;;;;;;;0.52;0.10;;;;;;;;;;5043816;28;20028;-73
2021/10/05 02:37:07;;;;;;;2.80;0.38;;;;;;;;;;5050220;28;20469;-72
2021/10/05 02:39:35;;;;;;;3.08;0.73;;;;;;;;;;5047095;28;20056;-74
2021/10/05 02:42:02;;;;;;;6.85;0.82;;;;;;;;;;5051419;28;20025;-73
2021/10/05 02:44:29;;;;;;;0.88;0.10;;;;;;;;;;5035014;28;20025;-73
2021/10/05 02:46:56;;;;;;;2.45;0.20;;;;;;;;;;5031301;28;20093;-74
2021/10/05 02:49:24;;;;;;;2.95;0.30;;;;;;;;;;5044318;28;20593;-73
2021/10/05 02:51:51;;;;;;;2.08;0.10;;;;;;;;;;5038060;28;20471;-74
2021/10/05 02:54:18;;;;;;;2.75;0.10;;;;;;;;;;5043869;28;20036;-75
2021/10/05 02:56:45;;;;;;;0.75;0.13;;;;;;;;;;5045317;28;20516;-74
2021/10/05 02:59:14;;;;;;;2.05;0.20;;;;;;;;;;5044819;28;20052;-74
2021/10/05 03:01:41;;;;;;;0.85;0.47;;;;;;;;;;5039130;28;20028;-74
2021/10/05 03:04:08;;;;;;;2.65;0.13;;;;;;;;;;5050905;28;20109;-73
2021/10/05 03:06:35;;;;;;;1.75;0.20;;;;;;;;;;5041784;28;20033;-74
2021/10/05 03:09:03;;;;;;;0.73;0.10;;;;;;;;;;5042192;28;20091;-74
2021/10/05 03:11:30;;;;;;;0.93;0.20;;;;;;;;;;5046167;28;20025;-74
2021/10/05 03:13:58;;;;;;;1.40;0.30;;;;;;;;;;5042351;28;20045;-73
2021/10/05 03:16:25;;;;;;;1.92;0.30;;;;;;;;;;5046300;28;20020;-74
2021/10/05 03:18:52;;;;;;;1.70;0.40;;;;;;;;;;5034193;28;20091;-73
2021/10/05 03:21:19;;;;;;;2.38;0.10;;;;;;;;;;5032167;28;20116;-74
2021/10/05 03:23:47;;;;;;;2.90;0.28;;;;;;;;;;5036160;28;20034;-74
2021/10/05 03:26:14;;;;;;;1.88;0.28;;;;;;;;;;5036964;28;20029;-73
2021/10/05 03:28:41;;;;;;;2.85;0.40;;;;;;;;;;5065534;28;20509;-73
2021/10/05 03:31:11;;;;;;;2.97;0.30;;;;;;;;;;5039605;28;20576;-74
2021/10/05 03:33:39;;;;;;;1.85;0.30;;;;;;;;;;5041685;28;20406;-73
2021/10/05 03:36:06;;;;;;;2.78;0.35;;;;;;;;;;5033015;28;20022;-74
2021/10/05 03:38:33;;;;;;;3.30;0.47;;;;;;;;;;5030085;28;20050;-74
2021/10/05 03:41:00;;;;;;;1.35;0.52;;;;;;;;;;5041882;28;20017;-74
2021/10/05 03:43:28;;;;;;;1.10;0.28;;;;;;;;;;5048271;28;20028;-73
2021/10/05 03:45:55;;;;;;;2.50;0.40;;;;;;;;;;5048391;28;20493;-73
2021/10/05 03:48:23;;;;;;;4.85;0.73;;;;;;;;;;5055384;28;20425;-74
2021/10/05 03:50:50;;;;;;;2.50;0.40;;;;;;;;;;5035353;28;20030;-74
2021/10/05 03:53:19;;;;;;;2.83;0.40;;;;;;;;;;5044090;28;20497;-75
2021/10/05 03:55:51;;;;;;;2.03;0.20;;;;;;;;;;5051188;28;20028;-73
2021/10/05 03:58:18;;;;;;;4.43;0.30;;;;;;;;;;5045960;28;20018;-73
2021/10/05 04:00:46;;;;;;;3.22;0.40;;;;;;;;;;5050526;28;20025;-73
2021/10/05 04:03:13;;;;;;;3.30;0.63;;;;;;;;;;5051996;28;20473;-74
2021/10/05 04:05:41;;;;;;;5.32;0.40;;;;;;;;;;5046649;28;20524;-74
2021/10/05 04:08:09;;;;;;;2.33;0.63;;;;;;;;;;5035002;28;20466;-74
2021/10/05 04:10:37;;;;;;;2.40;0.50;;;;;;;;;;5048318;28;20101;-74
2021/10/05 04:13:04;;;;;;;4.75;0.82;;;;;;;;;;5052608;28;20108;-72
2021/10/05 04:15:32;;;;;;;1.67;0.40;;;;;;;;;;5049916;28;20067;-74
2021/10/05 04:17:59;;;;;;;1.98;0.28;;;;;;;;;;5034435;28;20033;-74
2021/10/05 04:20:26;;;;;;;3.13;0.30;;;;;;;;;;5039068;28;20095;-72
2021/10/05 04:22:53;;;;;;;2.15;0.50;;;;;;;;;;5050751;28;20175;-73
2021/10/05 04:25:20;;;;;;;1.45;0.28;;;;;;;;;;5036668;28;20029;-72
2021/10/05 04:27:48;;;;;;;0.82;0.20;;;;;;;;;;5040009;28;20116;-74
2021/10/05 04:30:15;;;;;;;2.22;0.60;;;;;;;;;;5054217;28;20048;-74
2021/10/05 04:32:42;;;;;;;1.40;0.30;;;;;;;;;;5047560;28;20017;-75
2021/10/05 04:35:10;;;;;;;2.17;0.40;;;;;;;;;;5035160;28;20044;-74
2021/10/05 04:37:37;;;;;;;2.25;0.65;;;;;;;;;;5035419;28;20709;-74
2021/10/05 04:40:05;;;;;;;1.23;0.20;;;;;;;;;;5060296;28;20054;-73
2021/10/05 04:42:32;;;;;;;3.13;0.38;;;;;;;;;;5038810;28;20021;-73
2021/10/05 04:45:00;;;;;;;2.05;0.40;;;;;;;;;;5033681;28;20490;-73
2021/10/05 04:47:27;;;;;;;4.65;0.32;;;;;;;;;;5039286;28;20026;-75
2021/10/05 04:49:54;;;;;;;3.63;0.30;;;;;;;;;;5045075;28;20022;-75
2021/10/05 04:52:21;;;;;;;2.97;0.55;;;;;;;;;;5042115;28;20131;-74
2021/10/05 04:54:48;;;;;;;3.80;0.30;;;;;;;;;;5033254;28;20116;-75
2021/10/05 04:57:15;;;;;;;5.22;0.45;;;;;;;;;;5039700;28;20101;-75
2021/10/05 04:59:42;;;;;;;4.97;0.88;;;;;;;;;;5053831;28;20397;-75
2021/10/05 05:02:09;;;;;;;2.00;0.57;;;;;;;;;;5053933;28;20021;-74
2021/10/05 05:04:36;;;;;;;2.72;0.50;;;;;;;;;;5043674;28;20042;-75
2021/10/05 05:07:04;;;;;;;3.63;0.50;;;;;;;;;;5034652;28;20025;-75
2021/10/05 05:09:34;;;;;;;3.15;0.43;;;;;;;;;;5044146;28;20041;-75
2021/10/05 05:12:01;;;;;;;1.08;0.30;;;;;;;;;;5045746;28;20029;-74
2021/10/05 05:14:28;;;;;;;1.27;0.28;;;;;;;;;;5052785;28;20025;-73
2021/10/05 05:16:55;;;;;;;3.90;0.60;;;;;;;;;;5042015;28;20033;-75
2021/10/05 05:19:22;;;;;;;5.00;0.52;;;;;;;;;;5052311;28;20112;-74
2021/10/05 05:21:50;;;;;;;3.10;0.57;;;;;;;;;;5052208;28;20434;-73
2021/10/05 05:24:17;;;;;;;3.78;0.90;;;;;;;;;;5049840;28;20390;-74
2021/10/05 05:26:44;;;;;;;2.28;0.35;;;;;;;;;;5051767;28;20102;-74
2021/10/05 05:29:11;;;;;;;2.05;0.38;;;;;;;;;;5041532;28;20033;-74
2021/10/05 05:31:38;;;;;;;2.55;0.28;;;;;;;;;;5043622;28;20059;-73
2021/10/05 05:34:06;;;;;;;2.33;0.52;;;;;;;;;;5048383;28;20025;-74
2021/10/05 05:36:33;;;;;;;5.63;1.00;;;;;;;;;;5043383;28;20021;-75
2021/10/05 05:39:00;;;;;;;4.03;0.70;;;;;;;;;;5038014;28;20052;-75
2021/10/05 05:41:27;;;;;;;2.30;0.40;;;;;;;;;;5032143;28;20047;-72
2021/10/05 05:43:54;;;;;;;2.55;0.40;;;;;;;;;;5032906;28;20040;-73
2021/10/05 05:46:21;;;;;;;2.75;0.65;;;;;;;;;;5043286;28;20079;-75
2021/10/05 05:48:48;;;;;;;6.55;0.70;;;;;;;;;;5040959;28;20383;-73
2021/10/05 05:51:15;;;;;;;3.17;0.60;;;;;;;;;;5045470;28;20261;-75
2021/10/05 05:53:44;;;;;;;1.48;0.35;;;;;;;;;;5046961;28;20109;-75
2021/10/05 05:56:11;;;;;;;4.75;0.52;;;;;;;;;;5043170;28;20029;-75
2021/10/05 05:58:38;;;;;;;3.95;0.75;;;;;;;;;;5071610;28;20033;-74
2021/10/05 06:01:05;;;;;;;2.88;0.63;;;;;;;;;;5053634;28;20029;-75
2021/10/05 06:03:32;;;;;;;5.47;1.27;;;;;;;;;;5052102;28;20036;-75
2021/10/05 06:05:59;;;;;;;2.85;0.60;;;;;;;;;;5034788;28;20052;-77
2021/10/05 06:08:26;;;;;;;5.60;1.00;;;;;;;;;;5039337;28;20370;-76
2021/10/05 06:10:54;;;;;;;3.92;0.52;;;;;;;;;;5064258;28;20036;-75
2021/10/05 06:13:21;;;;;;;7.35;1.25;;;;;;;;;;5051908;28;20029;-75
2021/10/05 06:15:50;;;;;;;2.50;0.43;;;;;;;;;;5051550;28;20120;-75
2021/10/05 06:18:18;;;;;;;3.97;0.60;;;;;;;;;;5046666;28;20036;-77
2021/10/05 06:20:45;;;;;;;3.50;0.52;;;;;;;;;;5042294;28;20486;-74
2021/10/05 06:23:12;;;;;;;5.00;1.00;;;;;;;;;;5033022;28;20026;-76
2021/10/05 06:25:42;;;;;;;6.10;0.98;;;;;;;;;;5031825;28;20026;-74
2021/10/05 06:28:10;;;;;;;3.28;0.60;;;;;;;;;;5032869;28;20373;-75
2021/10/05 06:30:38;;;;;;;2.92;0.35;;;;;;;;;;5032074;28;20061;-74
2021/10/05 06:33:05;;;;;;;3.88;0.73;;;;;;;;;;5040701;28;20029;-75
2021/10/05 06:35:32;;;;;;;3.28;0.73;;;;;;;;;;5050703;28;20048;-75
2021/10/05 06:38:00;;;;;;;6.35;0.65;;;;;;;;;;5052017;28;20017;-74
2021/10/05 06:40:29;;;;;;;2.92;0.57;;;;;;;;;;5052112;28;20049;-74
2021/10/05 06:42:56;;;;;;;4.68;0.82;;;;;;;;;;5033733;28;20128;-72
2021/10/05 06:45:24;;;;;;;3.42;0.52;;;;;;;;;;5053110;28;20037;-74
2021/10/05 06:47:51;;;;;;;4.13;0.68;;;;;;;;;;5039763;28;20034;-74
2021/10/05 06:50:18;;;;;;;4.60;0.90;;;;;;;;;;5044326;28;20091;-74
2021/10/05 06:52:45;;;;;;;3.97;0.82;;;;;;;;;;5051304;28;20025;-74
2021/10/05 06:55:13;;;;;;;5.72;1.23;;;;;;;;;;5034965;28;20466;-74
2021/10/05 06:57:40;;;;;;;4.03;1.20;;;;;;;;;;5042354;28;20064;-70
2021/10/05 07:00:14;;;;;;;5.55;0.80;;;;;;;;;;5052080;28;20021;-75
2021/10/05 07:02:41;;;;;;;;;;;;;;;;;;5049880;28;20021;-74
2021/10/05 07:05:08;;;;;;;3.53;0.73;;;;;;;;;;5042413;28;20027;-74
2021/10/05 07:07:42;;;;;;;9.07;0.90;;;;;;;;;;5050287;28;20021;-75
2021/10/05 07:10:11;;;;;;;6.60;1.10;;;;;;;;;;5034546;28;20037;-75
2021/10/05 07:12:38;;;;;;;5.32;1.17;;;;;;;;;;5044072;28;20482;-74
2021/10/05 07:15:06;;;;;;;5.60;1.10;;;;;;;;;;5037856;28;20041;-75
2021/10/05 07:17:33;;;;;;;5.78;1.80;;;;;;;;;;5044719;28;20020;-75
2021/10/05 07:20:01;;;;;;;6.18;0.80;;;;;;;;;;5032667;28;20033;-71
2021/10/05 07:22:28;;;;;;;4.88;0.70;;;;;;;;;;5032299;28;20021;-73
2021/10/05 07:24:56;;;;;;;5.78;1.25;;;;;;;;;;5046379;28;20029;-71
2021/10/05 07:27:23;;;;;;;6.82;1.08;;;;;;;;;;5035434;28;20108;-73
2021/10/05 07:29:50;;;;;;;4.68;1.25;;;;;;;;;;5049272;28;20041;-74
2021/10/05 07:32:17;;;;;;;5.13;1.23;;;;;;;;;;5032565;28;20547;-75
2021/10/05 07:34:45;;;;;;;5.45;0.90;;;;;;;;;;5050121;28;20021;-73
2021/10/05 07:37:12;;;;;;;6.07;1.00;;;;;;;;;;5046083;28;20040;-74
2021/10/05 07:39:39;;;;;;;6.00;1.27;;;;;;;;;;5037893;28;20056;-74
2021/10/05 07:42:07;;;;;;;8.15;1.52;;;;;;;;;;5035889;28;20123;-73
2021/10/05 07:44:34;;;;;;;5.90;1.90;;;;;;;;;;5047407;28;20030;-73
2021/10/05 07:47:02;;;;;;;6.35;1.63;;;;;;;;;;5053376;28;20021;-74
2021/10/05 07:49:29;;;;;;;7.13;1.67;;;;;;;;;;5047407;28;20057;-74
2021/10/05 07:51:56;;;;;;;8.35;1.20;;;;;;;;;;5043613;28;20013;-73
2021/10/05 07:54:23;;;;;;;6.68;1.20;;;;;;;;;;5052552;28;20477;-73
2021/10/05 07:56:50;;;;;;;6.22;1.00;;;;;;;;;;5044577;28;20037;-74
2021/10/05 07:59:17;;;;;;;8.43;1.67;;;;;;;;;;5052957;28;20053;-74
2021/10/05 08:01:50;;;;;;;5.85;1.35;;;;;;;;;;5048258;28;20021;-74
2021/10/05 08:04:17;;;;;;;6.72;1.33;;;;;;;;;;5038212;28;20378;-74
2021/10/05 08:06:45;;;;;;;8.30;1.70;;;;;;;;;;5038508;28;20068;-74
2021/10/05 08:09:14;;;;;;;9.07;1.58;;;;;;;;;;5052153;28;20040;-73
2021/10/05 08:11:42;;;;;;;9.98;1.90;;;;;;;;;;5045845;28;20501;-73
2021/10/05 08:14:09;;;;;;;6.88;1.63;;;;;;;;;;5065823;28;20033;-73
2021/10/05 08:16:36;;;;;;;8.55;1.38;;;;;;;;;;5050094;28;20128;-74
2021/10/05 08:19:03;;;;;;;7.47;1.15;;;;;;;;;;5038903;28;20025;-74
2021/10/05 08:21:31;;;;;;;9.38;1.20;;;;;;;;;;5053618;28;20517;-74
2021/10/05 08:23:58;;;;;;;9.15;1.80;;;;;;;;;;5053255;28;20504;-74
2021/10/05 08:26:26;;;;;;;7.68;1.67;;;;;;;;;;5040588;28;20517;-73
2021/10/05 08:28:53;;;;;;;9.07;1.73;;;;;;;;;;5049157;28;20470;-74
2021/10/05 08:31:20;;;;;;;9.40;1.45;;;;;;;;;;5053477;28;20041;-73
2021/10/05 08:33:48;;;;;;;7.68;1.52;;;;;;;;;;5047328;28;20494;-72
2021/10/05 08:36:15;;;;;;;6.93;1.15;;;;;;;;;;5048356;28;20116;-73
2021/10/05 08:38:42;;;;;;;7.97;1.92;;;;;;;;;;5041353;28;20045;-73
2021/10/05 08:41:09;;;;;;;7.05;1.55;;;;;;;;;;5043302;28;20056;-72
2021/10/05 08:43:36;;;;;;;10.38;1.83;;;;;;;;;;5042971;28;20021;-73
2021/10/05 08:46:04;;;;;;;7.32;1.50;;;;;;;;;;5051462;28;20016;-73
2021/10/05 08:48:33;;;;;;;8.75;1.55;;;;;;;;;;5039391;28;20025;-73
2021/10/05 08:51:00;;;;;;;8.77;1.95;;;;;;;;;;5046327;28;20517;-74
2021/10/05 08:53:30;;;;;;;8.98;1.90;;;;;;;;;;5047914;28;20088;-74
2021/10/05 08:55:58;;;;;;;9.13;1.50;;;;;;;;;;5035113;28;20426;-75
2021/10/05 08:58:25;;;;;;;8.30;1.92;;;;;;;;;;5038528;28;20056;-73
2021/10/05 09:00:55;;;;;;;9.10;1.88;;;;;;;;;;5041987;28;20083;-74
2021/10/05 09:03:23;;;;;;;9.77;2.13;;;;;;;;;;5046862;28;20028;-73
2021/10/05 09:05:50;;;;;;;9.48;1.80;;;;;;;;;;5039333;28;20083;-73
2021/10/05 09:08:27;;;;;;;8.65;1.42;;;;;;;;;;5042614;28;20024;-73
2021/10/05 09:11:01;;;;;;;7.55;1.58;;;;;;;;;;5043685;28;20497;-75
2021/10/05 09:13:27;;;;;;;;;;;;;;;;;;5038352;28;20083;-73
2021/10/05 09:15:55;;;;;;;7.45;1.55;;;;;;;;;;5051325;28;19912;-74
2021/10/05 09:18:22;;;;;;;8.30;1.70;;;;;;;;;;5050284;28;20112;-74
2021/10/05 09:20:49;;;;;;;7.95;1.42;;;;;;;;;;5051696;28;20151;-73
2021/10/05 09:23:17;;;;;;;6.78;1.27;;;;;;;;;;5044883;28;20021;-74
2021/10/05 09:25:50;;;;;;;6.18;1.30;;;;;;;;;;5040629;28;20063;-74
2021/10/05 09:28:25;;;;;;;7.03;1.65;;;;;;;;;;5043125;28;20162;-74
2021/10/05 09:31:00;;;;;;;8.38;1.40;;;;;;;;;;5045180;28;20036;-73
2021/10/05 09:33:28;;;;;;;14.32;2.65;;;;;;;;;;5043758;28;20619;-74
2021/10/05 09:35:56;;;;;;;9.88;1.20;;;;;;;;;;5034131;28;20065;-71
2021/10/05 09:38:24;;;;;;;9.32;1.60;;;;;;;;;;5036629;28;20088;-72
2021/10/05 09:41:02;;;;;;;10.15;1.27;;;;;;;;;;5034578;28;20078;-73
2021/10/05 09:43:30;;;;;;;8.20;1.35;;;;;;;;;;5060009;28;20086;-73
2021/10/05 09:46:14;;;;;;;8.13;1.15;;;;;;;;;;5045462;28;20037;-74
2021/10/05 09:48:42;;;;;;;11.65;1.88;;;;;;;;;;5036868;28;20121;-73
2021/10/05 09:51:35;;;;;;;9.00;1.52;;;;;;;;;;5043330;28;20468;-74
2021/10/05 09:54:02;;;;;;;13.30;1.80;;;;;;;;;;5039067;28;20118;-74
2021/10/05 09:56:31;;;;;;;9.10;1.83;;;;;;;;;;5038901;28;20397;-75
2021/10/05 09:58:59;;;;;;;7.03;1.50;;;;;;;;;;5037092;28;20099;-75
2021/10/05 10:01:30;;;;;;;10.73;1.60;;;;;;;;;;5039313;28;20021;-75
2021/10/05 10:03:58;;;;;;;8.15;1.55;;;;;;;;;;5041316;28;20025;-76
2021/10/05 10:06:25;;;;;;;7.97;1.45;;;;;;;;;;5050440;28;20424;-75
2021/10/05 10:08:57;;;;;;;9.27;2.47;;;;;;;;;;5051547;28;20032;-75
2021/10/05 10:11:27;;;;;;;9.30;1.92;;;;;;;;;;5034723;28;20049;-76
2021/10/05 10:13:55;;;;;;;10.55;2.03;;;;;;;;;;5048025;28;20032;-75
2021/10/05 10:16:23;;;;;;;8.05;2.03;;;;;;;;;;5044305;28;20032;-72
2021/10/05 10:18:59;;;;;;;7.32;1.30;;;;;;;;;;5040708;28;20116;-73
2021/10/05 10:21:29;;;;;;;7.40;1.70;;;;;;;;;;5038702;28;20021;-74
2021/10/05 10:24:10;;;;;;;8.20;1.90;;;;;;;;;;5045777;28;20116;-75
2021/10/05 10:26:41;;;;;;;13.75;2.33;;;;;;;;;;5049424;28;20065;-75
2021/10/05 10:29:08;;;;;;;10.55;2.20;;;;;;;;;;5040786;28;20040;-74
2021/10/05 10:31:39;;;;;;;8.98;1.55;;;;;;;;;;5046980;28;20058;-73
2021/10/05 10:34:07;;;;;;;8.15;1.83;;;;;;;;;;5042441;28;20017;-73
2021/10/05 10:36:42;;;;;;;7.70;2.03;;;;;;;;;;5034111;28;20566;-75
2021/10/05 10:39:13;;;;;;;8.38;2.03;;;;;;;;;;5037804;28;20041;-74
2021/10/05 10:41:43;;;;;;;8.93;1.70;;;;;;;;;;5035784;28;20071;-73
2021/10/05 10:44:12;;;;;;;10.18;2.05;;;;;;;;;;5051398;28;20029;-73
2021/10/05 10:46:40;;;;;;;7.18;1.90;;;;;;;;;;5036543;28;20020;-73
2021/10/05 10:49:15;;;;;;;10.40;2.03;;;;;;;;;;5051543;28;20040;-73
2021/10/05 10:51:44;;;;;;;10.65;1.65;;;;;;;;;;5048952;28;20032;-72
2021/10/05 10:54:13;;;;;;;9.45;1.88;;;;;;;;;;5050117;28;20055;-74
2021/10/05 10:56:41;;;;;;;14.00;2.47;;;;;;;;;;5043130;28;20033;-73
2021/10/05 10:59:09;;;;;;;9.65;1.73;;;;;;;;;;5041004;28;20036;-72
2021/10/05 11:01:47;;;;;;;10.52;2.25;;;;;;;;;;5036613;28;20488;-71
2021/10/05 11:04:19;;;;;;;9.93;1.40;;;;;;;;;;5043286;28;20115;-73
2021/10/05 11:06:52;;;;;;;8.93;1.60;;;;;;;;;;5050775;28;20021;-74
2021/10/05 11:09:19;;;;;;;6.65;1.23;;;;;;;;;;5049556;28;20080;-74
2021/10/05 11:11:49;;;;;;;5.97;2.05;;;;;;;;;;5048501;28;20037;-73
2021/10/05 11:14:23;;;;;;;8.77;1.75;;;;;;;;;;5046004;28;20036;-74
2021/10/05 11:17:04;;;;;;;13.32;2.03;;;;;;;;;;5055130;28;20417;-73
2021/10/05 11:19:36;;;;;;;11.02;1.48;;;;;;;;;;5045045;28;20061;-73
2021/10/05 11:22:05;;;;;;;9.35;1.45;;;;;;;;;;5036509;28;20087;-72
2021/10/05 11:24:43;;;;;;;9.60;1.55;;;;;;;;;;5049988;28;20016;-74
2021/10/05 11:27:16;;;;;;;8.10;1.30;;;;;;;;;;5036545;28;20044;-71
2021/10/05 11:29:43;;;;;;;6.55;1.77;;;;;;;;;;5035625;28;20088;-75
2021/10/05 11:32:13;;;;;;;11.05;2.00;;;;;;;;;;5036371;28;20029;-72
2021/10/05 11:34:42;;;;;;;10.73;2.20;;;;;;;;;;5035721;28;20026;-73
2021/10/05 11:37:10;;;;;;;11.18;1.80;;;;;;;;;;5038170;28;20026;-74
2021/10/05 11:39:38;;;;;;;7.82;1.52;;;;;;;;;;5045559;28;20045;-73
2021/10/05 11:42:15;;;;;;;8.40;2.45;;;;;;;;;;5047036;28;20242;-73
2021/10/05 11:44:43;;;;;;;7.97;1.73;;;;;;;;;;5055184;28;20474;-73
2021/10/05 11:47:12;;;;;;;7.60;1.23;;;;;;;;;;5045005;28;20033;-75
2021/10/05 11:49:41;;;;;;;6.40;1.10;;;;;;;;;;5048364;28;20441;-73
2021/10/05 11:52:19;;;;;;;8.90;1.63;;;;;;;;;;5037010;28;20020;-75
2021/10/05 11:54:46;;;;;;;6.85;1.80;;;;;;;;;;5039209;28;20032;-72
2021/10/05 11:57:18;;;;;;;12.05;2.00;;;;;;;;;;5045197;28;20108;-74
2021/10/05 11:59:46;;;;;;;10.02;1.65;;;;;;;;;;5034063;28;20072;-72
2021/10/05 12:02:14;;;;;;;9.00;1.63;;;;;;;;;;5033741;28;20485;-73
2021/10/05 12:04:43;;;;;;;9.68;1.75;;;;;;;;;;5049753;28;20059;-73
2021/10/05 12:07:12;;;;;;;10.90;1.60;;;;;;;;;;5035409;28;20029;-73
2021/10/05 12:09:40;;;;;;;6.88;2.22;;;;;;;;;;5042757;28;20051;-74
2021/10/05 12:12:11;;;;;;;9.13;1.70;;;;;;;;;;5044266;28;20021;-72
2021/10/05 12:14:43;;;;;;;7.93;1.52;;;;;;;;;;5054797;28;20028;-73
2021/10/05 12:17:17;;;;;;;11.90;2.25;;;;;;;;;;5052695;28;20056;-73
2021/10/05 12:19:44;;;;;;;;;;;;;;;;;;5054359;28;20111;-73
2021/10/05 12:22:11;;;;;;;7.65;1.45;;;;;;;;;;5048988;28;19963;-73
2021/10/05 12:24:38;;;;;;;7.60;1.63;;;;;;;;;;5049631;28;20052;-73
2021/10/05 12:27:06;;;;;;;9.13;2.13;;;;;;;;;;5051435;28;20025;-74
2021/10/05 12:29:33;;;;;;;8.95;1.35;;;;;;;;;;5038356;28;20029;-73
2021/10/05 12:32:01;;;;;;;9.40;1.55;;;;;;;;;;5050932;28;20064;-72
2021/10/05 12:34:34;;;;;;;9.15;1.80;;;;;;;;;;5047058;28;20025;-74
2021/10/05 12:37:03;;;;;;;13.20;2.13;;;;;;;;;;5048506;28;20025;-75
2021/10/05 12:39:31;;;;;;;12.50;2.22;;;;;;;;;;5052753;28;20120;-73
2021/10/05 12:41:59;;;;;;;10.55;1.50;;;;;;;;;;5053839;28;20017;-73
2021/10/05 12:44:26;;;;;;;10.90;1.80;;;;;;;;;;5042377;28;20021;-73
2021/10/05 12:46:54;;;;;;;10.90;2.53;;;;;;;;;;5038550;28;20096;-73
2021/10/05 12:49:21;;;;;;;7.35;1.75;;;;;;;;;;5034592;28;20041;-74
2021/10/05 12:51:49;;;;;;;12.88;2.47;;;;;;;;;;5034017;28;20025;-73
2021/10/05 12:54:16;;;;;;;11.63;1.83;;;;;;;;;;5052722;28;20116;-73
2021/10/05 12:56:43;;;;;;;13.05;2.33;;;;;;;;;;5049689;28;20425;-73
2021/10/05 12:59:11;;;;;;;12.18;2.28;;;;;;;;;;5037670;28;20028;-74
2021/10/05 13:01:38;;;;;;;9.88;1.80;;;;;;;;;;5037152;28;20026;-73
2021/10/05 13:04:06;;;;;;;10.38;2.20;;;;;;;;;;5047839;28;20033;-73
2021/10/05 13:06:34;;;;;;;8.73;1.83;;;;;;;;;;5051652;28;20021;-73
2021/10/05 13:09:03;;;;;;;10.65;1.73;;;;;;;;;;5033917;28;22461;-73
2021/10/05 13:11:30;;;;;;;11.13;2.03;;;;;;;;;;5050812;28;20034;-74
2021/10/05 13:13:57;;;;;;;10.60;1.83;;;;;;;;;;5051665;28;20477;-74
2021/10/05 13:16:25;;;;;;;8.55;2.00;;;;;;;;;;5044501;28;20092;-74
2021/10/05 13:18:52;;;;;;;10.48;2.05;;;;;;;;;;5052662;28;20032;-73
2021/10/05 13:21:19;;;;;;;8.55;1.60;;;;;;;;;;5051749;28;20428;-75
2021/10/05 13:23:46;;;;;;;7.45;1.50;;;;;;;;;;5051679;28;20021;-74
2021/10/05 13:26:13;;;;;;;11.00;1.20;;;;;;;;;;5039430;28;20429;-73
2021/10/05 13:28:40;;;;;;;9.73;2.28;;;;;;;;;;5033818;28;20049;-72
2021/10/05 13:31:08;;;;;;;6.03;1.02;;;;;;;;;;5044668;28;20061;-74
2021/10/05 13:33:35;;;;;;;10.93;1.90;;;;;;;;;;5040290;28;20544;-74
2021/10/05 13:36:02;;;;;;;8.70;1.65;;;;;;;;;;5052730;28;20089;-72
2021/10/05 13:38:29;;;;;;;9.20;1.90;;;;;;;;;;5044718;28;20083;-73
2021/10/05 13:40:56;;;;;;;9.00;1.85;;;;;;;;;;5052455;28;20033;-74
2021/10/05 13:43:23;;;;;;;9.35;1.80;;;;;;;;;;5032912;28;20386;-74
2021/10/05 13:45:50;;;;;;;8.95;1.70;;;;;;;;;;5032632;28;20421;-73
2021/10/05 13:48:17;;;;;;;10.00;2.33;;;;;;;;;;5047521;28;20477;-73
2021/10/05 13:50:45;;;;;;;9.35;1.50;;;;;;;;;;5036010;28;20045;-74
2021/10/05 13:53:12;;;;;;;9.13;1.75;;;;;;;;;;5032085;28;20112;-74
2021/10/05 13:55:39;;;;;;;8.55;2.08;;;;;;;;;;5039085;28;20492;-73
2021/10/05 13:58:08;;;;;;;6.28;1.60;;;;;;;;;;5051106;28;20371;-74
2021/10/05 14:00:35;;;;;;;8.25;1.38;;;;;;;;;;5050901;28;20393;-75
2021/10/05 14:03:02;;;;;;;7.50;1.30;;;;;;;;;;5050259;28;20486;-75
2021/10/05 14:05:29;;;;;;;8.13;1.80;;;;;;;;;;5046054;28;20057;-74
2021/10/05 14:07:56;;;;;;;8.68;1.45;;;;;;;;;;5052237;28;20033;-74
2021/10/05 14:10:23;;;;;;;8.32;1.73;;;;;;;;;;5048551;28;20033;-75
2021/10/05 14:12:50;;;;;;;7.57;1.75;;;;;;;;;;5033000;28;20028;-74
2021/10/05 14:15:18;;;;;;;11.20;2.17;;;;;;;;;;5040365;28;20025;-74
2021/10/05 14:17:45;;;;;;;6.45;1.30;;;;;;;;;;5047599;28;20025;-75
2021/10/05 14:20:13;;;;;;;10.88;1.50;;;;;;;;;;5039745;28;20025;-74
2021/10/05 14:22:41;;;;;;;5.70;1.20;;;;;;;;;;5050563;28;20025;-75
2021/10/05 14:25:08;;;;;;;9.13;2.00;;;;;;;;;;5042748;28;20032;-75
2021/10/05 14:27:35;;;;;;;7.68;2.08;;;;;;;;;;5043878;28;20048;-75
2021/10/05 14:30:03;;;;;;;10.88;1.40;;;;;;;;;;5051732;28;20093;-74
2021/10/05 14:32:30;;;;;;;10.30;1.40;;;;;;;;;;5047902;28;20079;-72
2021/10/05 14:34:57;;;;;;;5.43;1.00;;;;;;;;;;5031912;28;20430;-75
2021/10/05 14:37:24;;;;;;;5.65;1.33;;;;;;;;;;5050257;28;20024;-74
2021/10/05 14:39:51;;;;;;;7.20;1.67;;;;;;;;;;5051974;28;20055;-74
2021/10/05 14:42:18;;;;;;;7.25;1.40;;;;;;;;;;5031952;28;20084;-74
2021/10/05 14:44:45;;;;;;;7.35;1.35;;;;;;;;;;5033036;28;20029;-74
2021/10/05 14:47:12;;;;;;;7.97;1.40;;;;;;;;;;5038375;28;20021;-75
2021/10/05 14:49:40;;;;;;;7.47;1.30;;;;;;;;;;5041318;28;20061;-74